sensor_id;sensor_type;location;lat;lon;timestamp;temperature;humidity
28614;DHT22;15806;53.548;9.964;2023-05-07T00:00:16;9.90;99.90
28614;DHT22;15806;53.548;9.964;2023-05-07T00:01:57;9.90;99.90
28614;DHT22;15806;53.548;9.964;2023-05-07T00:03:37;9.90;99.90
28614;DHT22;15806;53.548;9.964;2023-05-07T00:05:18;9.90;99.90
28614;DHT22;15806;53.548;9.964;2023-05-07T00:06:58;9.90;99.90
28614;DHT22;15806;53.548;9.964;2023-05-07T00:08:39;9.90;99.90
28614;DHT22;15806;53.548;9.964;2023-05-07T00:10:19;10.00;99.90
28614;DHT22;15806;53.548;9.964;2023-05-07T00:12:00;10.00;99.90
28614;DHT22;15806;53.548;9.964;2023-05-07T00:13:40;9.90;99.90
28614;DHT22;15806;53.548;9.964;2023-05-07T00:15:21;10.00;99.90
28614;DHT22;15806;53.548;9.964;2023-05-07T00:17:02;9.90;99.90
28614;DHT22;15806;53.548;9.964;2023-05-07T00:18:42;9.80;99.90
28614;DHT22;15806;53.548;9.964;2023-05-07T00:20:23;9.90;99.90
28614;DHT22;15806;53.548;9.964;2023-05-07T00:22:03;9.90;99.90
28614;DHT22;15806;53.548;9.964;2023-05-07T00:23:44;9.90;99.90
28614;DHT22;15806;53.548;9.964;2023-05-07T00:25:24;9.90;99.90
28614;DHT22;15806;53.548;9.964;2023-05-07T00:27:05;9.90;99.90
28614;DHT22;15806;53.548;9.964;2023-05-07T00:28:45;9.90;99.90
28614;DHT22;15806;53.548;9.964;2023-05-07T00:30:26;9.90;99.90
28614;DHT22;15806;53.548;9.964;2023-05-07T00:32:06;9.80;99.90
28614;DHT22;15806;53.548;9.964;2023-05-07T00:33:47;9.70;99.90
28614;DHT22;15806;53.548;9.964;2023-05-07T00:35:29;9.70;99.90
28614;DHT22;15806;53.548;9.964;2023-05-07T00:37:10;9.70;99.90
28614;DHT22;15806;53.548;9.964;2023-05-07T00:38:50;9.70;99.90
28614;DHT22;15806;53.548;9.964;2023-05-07T00:40:31;9.80;99.90
28614;DHT22;15806;53.548;9.964;2023-05-07T00:42:11;9.80;99.90
28614;DHT22;15806;53.548;9.964;2023-05-07T00:43:52;9.80;99.90
28614;DHT22;15806;53.548;9.964;2023-05-07T00:45:33;9.80;99.90
28614;DHT22;15806;53.548;9.964;2023-05-07T00:47:14;9.80;99.90
28614;DHT22;15806;53.548;9.964;2023-05-07T00:48:55;9.70;99.90
28614;DHT22;15806;53.548;9.964;2023-05-07T00:50:35;9.70;99.90
28614;DHT22;15806;53.548;9.964;2023-05-07T00:52:17;9.80;99.90
28614;DHT22;15806;53.548;9.964;2023-05-07T00:54:02;9.80;99.90
28614;DHT22;15806;53.548;9.964;2023-05-07T00:55:42;9.70;99.90
28614;DHT22;15806;53.548;9.964;2023-05-07T00:57:24;9.80;99.90
28614;DHT22;15806;53.548;9.964;2023-05-07T00:59:05;9.70;99.90
28614;DHT22;15806;53.548;9.964;2023-05-07T01:00:45;9.90;99.90
28614;DHT22;15806;53.548;9.964;2023-05-07T01:02:26;9.90;99.90
28614;DHT22;15806;53.548;9.964;2023-05-07T01:04:06;9.90;99.90
28614;DHT22;15806;53.548;9.964;2023-05-07T01:05:48;9.90;99.90
28614;DHT22;15806;53.548;9.964;2023-05-07T01:07:30;9.90;99.90
28614;DHT22;15806;53.548;9.964;2023-05-07T01:09:11;9.90;99.90
28614;DHT22;15806;53.548;9.964;2023-05-07T01:10:53;9.80;99.90
28614;DHT22;15806;53.548;9.964;2023-05-07T01:12:34;9.70;99.90
28614;DHT22;15806;53.548;9.964;2023-05-07T01:14:16;9.70;99.90
28614;DHT22;15806;53.548;9.964;2023-05-07T01:15:57;9.70;99.90
28614;DHT22;15806;53.548;9.964;2023-05-07T01:17:41;9.70;99.90
28614;DHT22;15806;53.548;9.964;2023-05-07T01:19:22;9.70;99.90
28614;DHT22;15806;53.548;9.964;2023-05-07T01:21:04;9.70;99.90
28614;DHT22;15806;53.548;9.964;2023-05-07T01:22:45;9.70;99.90
28614;DHT22;15806;53.548;9.964;2023-05-07T01:24:25;9.80;99.90
28614;DHT22;15806;53.548;9.964;2023-05-07T01:26:06;9.70;99.90
28614;DHT22;15806;53.548;9.964;2023-05-07T01:27:46;9.60;99.90
28614;DHT22;15806;53.548;9.964;2023-05-07T01:29:28;9.50;99.90
28614;DHT22;15806;53.548;9.964;2023-05-07T01:31:09;9.60;99.90
28614;DHT22;15806;53.548;9.964;2023-05-07T01:33:11;9.60;99.90
28614;DHT22;15806;53.548;9.964;2023-05-07T01:34:54;9.60;99.90
28614;DHT22;15806;53.548;9.964;2023-05-07T01:36:37;9.60;99.90
28614;DHT22;15806;53.548;9.964;2023-05-07T01:38:19;9.60;99.90
28614;DHT22;15806;53.548;9.964;2023-05-07T01:40:01;9.50;99.90
28614;DHT22;15806;53.548;9.964;2023-05-07T01:41:43;9.50;99.90
28614;DHT22;15806;53.548;9.964;2023-05-07T01:43:24;9.50;99.90
28614;DHT22;15806;53.548;9.964;2023-05-07T01:45:05;9.60;99.90
28614;DHT22;15806;53.548;9.964;2023-05-07T01:46:46;9.60;99.90
28614;DHT22;15806;53.548;9.964;2023-05-07T01:48:27;9.60;99.90
28614;DHT22;15806;53.548;9.964;2023-05-07T01:50:09;9.60;99.90
28614;DHT22;15806;53.548;9.964;2023-05-07T01:51:49;9.60;99.90
28614;DHT22;15806;53.548;9.964;2023-05-07T01:53:36;9.60;99.90
28614;DHT22;15806;53.548;9.964;2023-05-07T01:55:17;9.50;99.90
28614;DHT22;15806;53.548;9.964;2023-05-07T01:56:57;9.50;99.90
28614;DHT22;15806;53.548;9.964;2023-05-07T01:58:38;9.60;99.90
28614;DHT22;15806;53.548;9.964;2023-05-07T02:00:19;9.60;99.90
28614;DHT22;15806;53.548;9.964;2023-05-07T02:01:59;9.60;99.90
28614;DHT22;15806;53.548;9.964;2023-05-07T02:03:40;9.50;99.90
28614;DHT22;15806;53.548;9.964;2023-05-07T02:05:20;9.60;99.90
28614;DHT22;15806;53.548;9.964;2023-05-07T02:07:01;9.70;99.90
28614;DHT22;15806;53.548;9.964;2023-05-07T02:08:41;9.70;99.90
28614;DHT22;15806;53.548;9.964;2023-05-07T02:10:22;9.70;99.90
28614;DHT22;15806;53.548;9.964;2023-05-07T02:12:03;9.70;99.90
28614;DHT22;15806;53.548;9.964;2023-05-07T02:13:45;9.60;99.90
28614;DHT22;15806;53.548;9.964;2023-05-07T02:15:25;9.60;99.90
28614;DHT22;15806;53.548;9.964;2023-05-07T02:17:06;9.50;99.90
28614;DHT22;15806;53.548;9.964;2023-05-07T02:18:46;9.60;99.90
28614;DHT22;15806;53.548;9.964;2023-05-07T02:20:27;9.60;99.90
28614;DHT22;15806;53.548;9.964;2023-05-07T02:22:09;9.60;99.90
28614;DHT22;15806;53.548;9.964;2023-05-07T02:23:49;9.60;99.90
28614;DHT22;15806;53.548;9.964;2023-05-07T02:25:30;9.70;99.90
28614;DHT22;15806;53.548;9.964;2023-05-07T02:27:10;9.70;99.90
28614;DHT22;15806;53.548;9.964;2023-05-07T02:28:51;9.70;99.90
28614;DHT22;15806;53.548;9.964;2023-05-07T02:30:31;9.70;99.90
28614;DHT22;15806;53.548;9.964;2023-05-07T02:32:15;9.70;99.90
28614;DHT22;15806;53.548;9.964;2023-05-07T02:33:55;9.60;99.90
28614;DHT22;15806;53.548;9.964;2023-05-07T02:35:39;9.60;99.90
28614;DHT22;15806;53.548;9.964;2023-05-07T02:37:20;9.60;99.90
28614;DHT22;15806;53.548;9.964;2023-05-07T02:39:01;9.60;99.90
28614;DHT22;15806;53.548;9.964;2023-05-07T02:40:51;9.60;99.90
28614;DHT22;15806;53.548;9.964;2023-05-07T02:42:31;9.60;99.90
28614;DHT22;15806;53.548;9.964;2023-05-07T02:44:39;9.60;99.90
28614;DHT22;15806;53.548;9.964;2023-05-07T02:46:27;9.60;99.90
28614;DHT22;15806;53.548;9.964;2023-05-07T02:48:08;9.60;99.90
28614;DHT22;15806;53.548;9.964;2023-05-07T02:49:48;9.70;99.90
28614;DHT22;15806;53.548;9.964;2023-05-07T02:51:30;9.70;99.90
28614;DHT22;15806;53.548;9.964;2023-05-07T02:53:10;9.60;99.90
28614;DHT22;15806;53.548;9.964;2023-05-07T02:54:51;9.60;99.90
28614;DHT22;15806;53.548;9.964;2023-05-07T02:56:31;9.60;99.90
28614;DHT22;15806;53.548;9.964;2023-05-07T02:58:12;9.60;99.90
28614;DHT22;15806;53.548;9.964;2023-05-07T02:59:52;9.60;99.90
28614;DHT22;15806;53.548;9.964;2023-05-07T03:01:33;9.70;99.90
28614;DHT22;15806;53.548;9.964;2023-05-07T03:03:14;9.70;99.90
28614;DHT22;15806;53.548;9.964;2023-05-07T03:04:55;9.70;99.90
28614;DHT22;15806;53.548;9.964;2023-05-07T03:06:35;9.60;99.90
28614;DHT22;15806;53.548;9.964;2023-05-07T03:08:16;9.60;99.90
28614;DHT22;15806;53.548;9.964;2023-05-07T03:09:57;9.60;99.90
28614;DHT22;15806;53.548;9.964;2023-05-07T03:11:37;9.70;99.90
28614;DHT22;15806;53.548;9.964;2023-05-07T03:13:18;9.60;99.90
28614;DHT22;15806;53.548;9.964;2023-05-07T03:14:58;9.70;99.90
28614;DHT22;15806;53.548;9.964;2023-05-07T03:16:40;9.70;99.90
28614;DHT22;15806;53.548;9.964;2023-05-07T03:18:20;9.60;99.90
28614;DHT22;15806;53.548;9.964;2023-05-07T03:20:01;9.60;99.90
28614;DHT22;15806;53.548;9.964;2023-05-07T03:21:41;9.70;99.90
28614;DHT22;15806;53.548;9.964;2023-05-07T03:23:22;9.70;99.90
28614;DHT22;15806;53.548;9.964;2023-05-07T03:25:02;9.70;99.90
28614;DHT22;15806;53.548;9.964;2023-05-07T03:26:43;9.70;99.90
28614;DHT22;15806;53.548;9.964;2023-05-07T03:28:23;9.70;99.90
28614;DHT22;15806;53.548;9.964;2023-05-07T03:30:04;9.70;99.90
28614;DHT22;15806;53.548;9.964;2023-05-07T03:31:45;9.80;99.90
28614;DHT22;15806;53.548;9.964;2023-05-07T03:33:26;9.80;99.90
28614;DHT22;15806;53.548;9.964;2023-05-07T03:35:06;9.80;99.90
28614;DHT22;15806;53.548;9.964;2023-05-07T03:36:50;9.70;99.90
28614;DHT22;15806;53.548;9.964;2023-05-07T03:38:30;9.80;99.90
28614;DHT22;15806;53.548;9.964;2023-05-07T03:40:11;9.90;99.90
28614;DHT22;15806;53.548;9.964;2023-05-07T03:41:52;9.90;99.90
28614;DHT22;15806;53.548;9.964;2023-05-07T03:43:32;9.90;99.90
28614;DHT22;15806;53.548;9.964;2023-05-07T03:45:13;9.90;99.90
28614;DHT22;15806;53.548;9.964;2023-05-07T03:46:53;9.80;99.90
28614;DHT22;15806;53.548;9.964;2023-05-07T03:48:34;9.70;99.90
28614;DHT22;15806;53.548;9.964;2023-05-07T03:50:15;9.70;99.90
28614;DHT22;15806;53.548;9.964;2023-05-07T03:51:55;9.60;99.90
28614;DHT22;15806;53.548;9.964;2023-05-07T03:53:36;9.70;99.90
28614;DHT22;15806;53.548;9.964;2023-05-07T03:55:16;9.60;99.90
28614;DHT22;15806;53.548;9.964;2023-05-07T03:56:57;9.50;99.90
28614;DHT22;15806;53.548;9.964;2023-05-07T03:58:37;9.50;99.90
28614;DHT22;15806;53.548;9.964;2023-05-07T04:00:18;9.60;99.90
28614;DHT22;15806;53.548;9.964;2023-05-07T04:01:58;9.50;99.90
28614;DHT22;15806;53.548;9.964;2023-05-07T04:03:40;9.40;99.90
28614;DHT22;15806;53.548;9.964;2023-05-07T04:05:20;9.50;99.90
28614;DHT22;15806;53.548;9.964;2023-05-07T04:07:01;9.40;99.90
28614;DHT22;15806;53.548;9.964;2023-05-07T04:08:41;9.50;99.90
28614;DHT22;15806;53.548;9.964;2023-05-07T04:10:22;9.50;99.90
28614;DHT22;15806;53.548;9.964;2023-05-07T04:12:03;9.60;99.90
28614;DHT22;15806;53.548;9.964;2023-05-07T04:13:43;9.70;99.90
28614;DHT22;15806;53.548;9.964;2023-05-07T04:15:24;9.60;99.90
28614;DHT22;15806;53.548;9.964;2023-05-07T04:17:04;9.50;99.90
28614;DHT22;15806;53.548;9.964;2023-05-07T04:18:45;9.40;99.90
28614;DHT22;15806;53.548;9.964;2023-05-07T04:20:25;9.40;99.90
28614;DHT22;15806;53.548;9.964;2023-05-07T04:22:06;9.50;99.90
28614;DHT22;15806;53.548;9.964;2023-05-07T04:23:47;9.50;99.90
28614;DHT22;15806;53.548;9.964;2023-05-07T04:25:28;9.50;99.90
28614;DHT22;15806;53.548;9.964;2023-05-07T04:27:10;9.50;99.90
28614;DHT22;15806;53.548;9.964;2023-05-07T04:28:50;9.50;99.90
28614;DHT22;15806;53.548;9.964;2023-05-07T04:30:31;9.50;99.90
28614;DHT22;15806;53.548;9.964;2023-05-07T04:32:11;9.50;99.90
28614;DHT22;15806;53.548;9.964;2023-05-07T04:33:52;9.60;99.90
28614;DHT22;15806;53.548;9.964;2023-05-07T04:35:32;9.60;99.90
28614;DHT22;15806;53.548;9.964;2023-05-07T04:37:13;9.50;99.90
28614;DHT22;15806;53.548;9.964;2023-05-07T04:38:53;9.60;99.90
28614;DHT22;15806;53.548;9.964;2023-05-07T04:40:35;9.50;99.90
28614;DHT22;15806;53.548;9.964;2023-05-07T04:42:17;9.50;99.90
28614;DHT22;15806;53.548;9.964;2023-05-07T04:43:57;9.60;99.90
28614;DHT22;15806;53.548;9.964;2023-05-07T04:45:38;9.50;99.90
28614;DHT22;15806;53.548;9.964;2023-05-07T04:47:18;9.50;99.90
28614;DHT22;15806;53.548;9.964;2023-05-07T04:48:59;9.50;99.90
28614;DHT22;15806;53.548;9.964;2023-05-07T04:50:39;9.50;99.90
28614;DHT22;15806;53.548;9.964;2023-05-07T04:52:20;9.50;99.90
28614;DHT22;15806;53.548;9.964;2023-05-07T04:54:00;9.50;99.90
28614;DHT22;15806;53.548;9.964;2023-05-07T04:55:41;9.50;99.90
28614;DHT22;15806;53.548;9.964;2023-05-07T04:57:21;9.50;99.90
28614;DHT22;15806;53.548;9.964;2023-05-07T04:59:02;9.50;99.90
28614;DHT22;15806;53.548;9.964;2023-05-07T05:00:42;9.50;99.90
28614;DHT22;15806;53.548;9.964;2023-05-07T05:02:23;9.50;99.90
28614;DHT22;15806;53.548;9.964;2023-05-07T05:04:03;9.50;99.90
28614;DHT22;15806;53.548;9.964;2023-05-07T05:05:44;9.60;99.90
28614;DHT22;15806;53.548;9.964;2023-05-07T05:07:24;9.50;99.90
28614;DHT22;15806;53.548;9.964;2023-05-07T05:09:05;9.60;99.90
28614;DHT22;15806;53.548;9.964;2023-05-07T05:10:46;9.60;99.90
28614;DHT22;15806;53.548;9.964;2023-05-07T05:12:26;9.60;99.90
28614;DHT22;15806;53.548;9.964;2023-05-07T05:14:07;9.50;99.90
28614;DHT22;15806;53.548;9.964;2023-05-07T05:15:47;9.50;99.90
28614;DHT22;15806;53.548;9.964;2023-05-07T05:17:28;9.50;99.90
28614;DHT22;15806;53.548;9.964;2023-05-07T05:19:08;9.50;99.90
28614;DHT22;15806;53.548;9.964;2023-05-07T05:20:49;9.60;99.90
28614;DHT22;15806;53.548;9.964;2023-05-07T05:22:31;9.50;99.90
28614;DHT22;15806;53.548;9.964;2023-05-07T05:24:12;9.40;99.90
28614;DHT22;15806;53.548;9.964;2023-05-07T05:25:59;9.50;99.90
28614;DHT22;15806;53.548;9.964;2023-05-07T05:27:39;9.50;99.90
28614;DHT22;15806;53.548;9.964;2023-05-07T05:29:20;9.40;99.90
28614;DHT22;15806;53.548;9.964;2023-05-07T05:31:00;9.50;99.90
28614;DHT22;15806;53.548;9.964;2023-05-07T05:32:41;9.50;99.90
28614;DHT22;15806;53.548;9.964;2023-05-07T05:34:21;9.60;99.90
28614;DHT22;15806;53.548;9.964;2023-05-07T05:36:02;9.50;99.90
28614;DHT22;15806;53.548;9.964;2023-05-07T05:37:42;9.50;99.90
28614;DHT22;15806;53.548;9.964;2023-05-07T05:39:23;9.50;99.90
28614;DHT22;15806;53.548;9.964;2023-05-07T05:41:04;9.60;99.90
28614;DHT22;15806;53.548;9.964;2023-05-07T05:42:44;9.50;99.90
28614;DHT22;15806;53.548;9.964;2023-05-07T05:44:24;9.60;99.90
28614;DHT22;15806;53.548;9.964;2023-05-07T05:46:05;9.60;99.90
28614;DHT22;15806;53.548;9.964;2023-05-07T05:47:45;9.60;99.90
28614;DHT22;15806;53.548;9.964;2023-05-07T05:49:26;9.70;99.90
28614;DHT22;15806;53.548;9.964;2023-05-07T05:51:06;9.60;99.90
28614;DHT22;15806;53.548;9.964;2023-05-07T05:52:47;9.50;99.90
28614;DHT22;15806;53.548;9.964;2023-05-07T05:54:27;9.50;99.90
28614;DHT22;15806;53.548;9.964;2023-05-07T05:56:08;9.50;99.90
28614;DHT22;15806;53.548;9.964;2023-05-07T05:57:49;9.60;99.90
28614;DHT22;15806;53.548;9.964;2023-05-07T05:59:30;9.70;99.90
28614;DHT22;15806;53.548;9.964;2023-05-07T06:01:10;9.60;99.90
28614;DHT22;15806;53.548;9.964;2023-05-07T06:02:51;9.70;99.90
28614;DHT22;15806;53.548;9.964;2023-05-07T06:04:31;9.70;99.90
28614;DHT22;15806;53.548;9.964;2023-05-07T06:06:12;9.70;99.90
28614;DHT22;15806;53.548;9.964;2023-05-07T06:07:52;9.60;99.90
28614;DHT22;15806;53.548;9.964;2023-05-07T06:09:33;9.60;99.90
28614;DHT22;15806;53.548;9.964;2023-05-07T06:11:13;9.60;99.90
28614;DHT22;15806;53.548;9.964;2023-05-07T06:12:54;9.70;99.90
28614;DHT22;15806;53.548;9.964;2023-05-07T06:14:35;9.70;99.90
28614;DHT22;15806;53.548;9.964;2023-05-07T06:16:15;9.70;99.90
28614;DHT22;15806;53.548;9.964;2023-05-07T06:17:56;9.60;99.90
28614;DHT22;15806;53.548;9.964;2023-05-07T06:19:36;9.60;99.90
28614;DHT22;15806;53.548;9.964;2023-05-07T06:21:17;9.60;99.90
28614;DHT22;15806;53.548;9.964;2023-05-07T06:22:58;9.60;99.90
28614;DHT22;15806;53.548;9.964;2023-05-07T06:24:38;9.60;99.90
28614;DHT22;15806;53.548;9.964;2023-05-07T06:26:18;9.70;99.90
28614;DHT22;15806;53.548;9.964;2023-05-07T06:27:59;9.80;99.90
28614;DHT22;15806;53.548;9.964;2023-05-07T06:29:40;9.70;99.90
28614;DHT22;15806;53.548;9.964;2023-05-07T06:31:20;9.70;99.90
28614;DHT22;15806;53.548;9.964;2023-05-07T06:33:01;9.70;99.90
28614;DHT22;15806;53.548;9.964;2023-05-07T06:34:41;9.70;99.90
28614;DHT22;15806;53.548;9.964;2023-05-07T06:36:22;9.70;99.90
28614;DHT22;15806;53.548;9.964;2023-05-07T06:38:02;9.70;99.90
28614;DHT22;15806;53.548;9.964;2023-05-07T06:39:43;9.60;99.90
28614;DHT22;15806;53.548;9.964;2023-05-07T06:41:23;9.60;99.90
28614;DHT22;15806;53.548;9.964;2023-05-07T06:43:04;9.60;99.90
28614;DHT22;15806;53.548;9.964;2023-05-07T06:44:44;9.70;99.90
28614;DHT22;15806;53.548;9.964;2023-05-07T06:46:25;9.70;99.90
28614;DHT22;15806;53.548;9.964;2023-05-07T06:48:05;9.70;99.90
28614;DHT22;15806;53.548;9.964;2023-05-07T06:49:46;9.70;99.90
28614;DHT22;15806;53.548;9.964;2023-05-07T06:51:26;9.80;99.90
28614;DHT22;15806;53.548;9.964;2023-05-07T06:53:07;9.80;99.90
28614;DHT22;15806;53.548;9.964;2023-05-07T06:54:47;9.80;99.90
28614;DHT22;15806;53.548;9.964;2023-05-07T06:56:27;9.90;99.90
28614;DHT22;15806;53.548;9.964;2023-05-07T06:58:08;9.80;99.90
28614;DHT22;15806;53.548;9.964;2023-05-07T06:59:48;9.80;99.90
28614;DHT22;15806;53.548;9.964;2023-05-07T07:01:29;9.90;99.90
28614;DHT22;15806;53.548;9.964;2023-05-07T07:03:09;9.80;99.90
28614;DHT22;15806;53.548;9.964;2023-05-07T07:04:50;9.80;99.90
28614;DHT22;15806;53.548;9.964;2023-05-07T07:06:30;9.80;99.90
28614;DHT22;15806;53.548;9.964;2023-05-07T07:08:11;9.80;99.90
28614;DHT22;15806;53.548;9.964;2023-05-07T07:09:53;9.80;99.90
28614;DHT22;15806;53.548;9.964;2023-05-07T07:11:33;9.90;99.90
28614;DHT22;15806;53.548;9.964;2023-05-07T07:13:14;9.80;99.90
28614;DHT22;15806;53.548;9.964;2023-05-07T07:14:54;9.80;99.90
28614;DHT22;15806;53.548;9.964;2023-05-07T07:16:35;9.90;99.90
28614;DHT22;15806;53.548;9.964;2023-05-07T07:18:15;9.90;99.90
28614;DHT22;15806;53.548;9.964;2023-05-07T07:19:56;10.00;99.90
28614;DHT22;15806;53.548;9.964;2023-05-07T07:21:36;10.00;99.90
28614;DHT22;15806;53.548;9.964;2023-05-07T07:23:17;10.10;99.90
28614;DHT22;15806;53.548;9.964;2023-05-07T07:24:57;9.90;99.90
28614;DHT22;15806;53.548;9.964;2023-05-07T07:26:38;10.00;99.90
28614;DHT22;15806;53.548;9.964;2023-05-07T07:28:21;9.90;99.90
28614;DHT22;15806;53.548;9.964;2023-05-07T07:30:01;10.10;99.90
28614;DHT22;15806;53.548;9.964;2023-05-07T07:31:42;10.00;99.90
28614;DHT22;15806;53.548;9.964;2023-05-07T07:33:22;10.00;99.90
28614;DHT22;15806;53.548;9.964;2023-05-07T07:35:03;10.00;99.90
28614;DHT22;15806;53.548;9.964;2023-05-07T07:36:44;10.10;99.90
28614;DHT22;15806;53.548;9.964;2023-05-07T07:38:24;10.20;99.90
28614;DHT22;15806;53.548;9.964;2023-05-07T07:40:05;10.30;99.90
28614;DHT22;15806;53.548;9.964;2023-05-07T07:41:46;10.30;99.90
28614;DHT22;15806;53.548;9.964;2023-05-07T07:43:28;10.30;99.90
28614;DHT22;15806;53.548;9.964;2023-05-07T07:45:09;10.20;99.90
28614;DHT22;15806;53.548;9.964;2023-05-07T07:46:49;10.20;99.90
28614;DHT22;15806;53.548;9.964;2023-05-07T07:48:30;10.10;99.90
28614;DHT22;15806;53.548;9.964;2023-05-07T07:50:11;10.20;99.90
28614;DHT22;15806;53.548;9.964;2023-05-07T07:51:51;10.30;99.90
28614;DHT22;15806;53.548;9.964;2023-05-07T07:53:32;10.30;99.90
28614;DHT22;15806;53.548;9.964;2023-05-07T07:55:12;10.30;99.90
28614;DHT22;15806;53.548;9.964;2023-05-07T07:56:53;10.40;99.90
28614;DHT22;15806;53.548;9.964;2023-05-07T07:58:33;10.30;99.90
28614;DHT22;15806;53.548;9.964;2023-05-07T08:00:14;10.20;99.90
28614;DHT22;15806;53.548;9.964;2023-05-07T08:01:55;10.20;99.90
28614;DHT22;15806;53.548;9.964;2023-05-07T08:03:36;10.20;99.90
28614;DHT22;15806;53.548;9.964;2023-05-07T08:05:16;10.20;99.90
28614;DHT22;15806;53.548;9.964;2023-05-07T08:06:57;10.30;99.90
28614;DHT22;15806;53.548;9.964;2023-05-07T08:08:37;10.40;99.90
28614;DHT22;15806;53.548;9.964;2023-05-07T08:10:18;10.30;99.90
28614;DHT22;15806;53.548;9.964;2023-05-07T08:11:58;10.30;99.90
28614;DHT22;15806;53.548;9.964;2023-05-07T08:13:39;10.30;99.90
28614;DHT22;15806;53.548;9.964;2023-05-07T08:15:19;10.40;99.90
28614;DHT22;15806;53.548;9.964;2023-05-07T08:17:00;10.40;99.90
28614;DHT22;15806;53.548;9.964;2023-05-07T08:18:40;10.50;99.90
28614;DHT22;15806;53.548;9.964;2023-05-07T08:20:23;10.50;99.90
28614;DHT22;15806;53.548;9.964;2023-05-07T08:22:03;10.50;99.90
28614;DHT22;15806;53.548;9.964;2023-05-07T08:23:44;10.30;99.90
28614;DHT22;15806;53.548;9.964;2023-05-07T08:25:24;10.40;99.90
28614;DHT22;15806;53.548;9.964;2023-05-07T08:27:05;10.40;99.90
28614;DHT22;15806;53.548;9.964;2023-05-07T08:28:46;10.40;99.90
28614;DHT22;15806;53.548;9.964;2023-05-07T08:30:26;10.50;99.90
28614;DHT22;15806;53.548;9.964;2023-05-07T08:32:07;10.40;99.90
28614;DHT22;15806;53.548;9.964;2023-05-07T08:33:47;10.40;99.90
28614;DHT22;15806;53.548;9.964;2023-05-07T08:35:28;10.40;99.90
28614;DHT22;15806;53.548;9.964;2023-05-07T08:37:08;10.40;99.90
28614;DHT22;15806;53.548;9.964;2023-05-07T08:38:49;10.40;99.90
28614;DHT22;15806;53.548;9.964;2023-05-07T08:40:33;10.30;99.90
28614;DHT22;15806;53.548;9.964;2023-05-07T08:42:17;10.30;99.90
28614;DHT22;15806;53.548;9.964;2023-05-07T08:43:59;10.50;99.90
28614;DHT22;15806;53.548;9.964;2023-05-07T08:45:40;10.70;99.90
28614;DHT22;15806;53.548;9.964;2023-05-07T08:47:23;10.80;99.90
28614;DHT22;15806;53.548;9.964;2023-05-07T08:49:06;10.70;99.90
28614;DHT22;15806;53.548;9.964;2023-05-07T08:50:46;10.60;99.90
28614;DHT22;15806;53.548;9.964;2023-05-07T08:52:27;10.60;99.90
28614;DHT22;15806;53.548;9.964;2023-05-07T08:54:09;10.60;99.90
28614;DHT22;15806;53.548;9.964;2023-05-07T08:55:51;10.50;99.90
28614;DHT22;15806;53.548;9.964;2023-05-07T08:57:32;10.50;99.90
28614;DHT22;15806;53.548;9.964;2023-05-07T08:59:13;10.60;99.90
28614;DHT22;15806;53.548;9.964;2023-05-07T09:00:54;10.60;99.90
28614;DHT22;15806;53.548;9.964;2023-05-07T09:02:35;10.60;99.90
28614;DHT22;15806;53.548;9.964;2023-05-07T09:04:16;10.60;99.90
28614;DHT22;15806;53.548;9.964;2023-05-07T09:05:56;10.50;99.90
28614;DHT22;15806;53.548;9.964;2023-05-07T09:07:37;10.50;99.90
28614;DHT22;15806;53.548;9.964;2023-05-07T09:09:18;10.50;99.90
28614;DHT22;15806;53.548;9.964;2023-05-07T09:10:58;10.50;99.90
28614;DHT22;15806;53.548;9.964;2023-05-07T09:12:39;10.40;99.90
28614;DHT22;15806;53.548;9.964;2023-05-07T09:14:21;10.50;99.90
28614;DHT22;15806;53.548;9.964;2023-05-07T09:16:12;10.50;99.90
28614;DHT22;15806;53.548;9.964;2023-05-07T09:17:53;10.50;99.90
28614;DHT22;15806;53.548;9.964;2023-05-07T09:19:33;10.60;99.90
28614;DHT22;15806;53.548;9.964;2023-05-07T09:21:18;10.60;99.90
28614;DHT22;15806;53.548;9.964;2023-05-07T09:22:59;10.70;99.90
28614;DHT22;15806;53.548;9.964;2023-05-07T09:24:39;10.70;99.90
28614;DHT22;15806;53.548;9.964;2023-05-07T09:26:24;10.60;99.90
28614;DHT22;15806;53.548;9.964;2023-05-07T09:28:05;10.60;99.90
28614;DHT22;15806;53.548;9.964;2023-05-07T09:29:45;10.80;99.90
28614;DHT22;15806;53.548;9.964;2023-05-07T09:31:26;10.80;99.90
28614;DHT22;15806;53.548;9.964;2023-05-07T09:33:06;10.90;99.90
28614;DHT22;15806;53.548;9.964;2023-05-07T09:34:47;11.00;99.90
28614;DHT22;15806;53.548;9.964;2023-05-07T09:36:27;11.00;99.90
28614;DHT22;15806;53.548;9.964;2023-05-07T09:38:08;10.90;99.90
28614;DHT22;15806;53.548;9.964;2023-05-07T09:39:49;11.00;99.90
28614;DHT22;15806;53.548;9.964;2023-05-07T09:41:30;11.00;1.00
28614;DHT22;15806;53.548;9.964;2023-05-07T09:43:13;11.10;1.00
28614;DHT22;15806;53.548;9.964;2023-05-07T09:44:54;11.10;1.00
28614;DHT22;15806;53.548;9.964;2023-05-07T09:46:36;11.00;99.90
28614;DHT22;15806;53.548;9.964;2023-05-07T09:48:18;10.80;1.00
28614;DHT22;15806;53.548;9.964;2023-05-07T09:49:59;10.80;99.90
28614;DHT22;15806;53.548;9.964;2023-05-07T09:51:50;10.80;99.90
28614;DHT22;15806;53.548;9.964;2023-05-07T09:53:31;10.70;1.00
28614;DHT22;15806;53.548;9.964;2023-05-07T09:55:13;10.80;1.00
28614;DHT22;15806;53.548;9.964;2023-05-07T09:56:55;10.90;1.00
28614;DHT22;15806;53.548;9.964;2023-05-07T09:58:37;10.90;99.90
28614;DHT22;15806;53.548;9.964;2023-05-07T10:00:20;10.90;99.90
28614;DHT22;15806;53.548;9.964;2023-05-07T10:02:03;10.90;99.90
28614;DHT22;15806;53.548;9.964;2023-05-07T10:03:44;11.00;1.00
28614;DHT22;15806;53.548;9.964;2023-05-07T10:05:26;10.90;1.00
28614;DHT22;15806;53.548;9.964;2023-05-07T10:07:18;10.90;99.90
28614;DHT22;15806;53.548;9.964;2023-05-07T10:09:09;11.10;99.90
28614;DHT22;15806;53.548;9.964;2023-05-07T10:10:50;11.10;13.70
28614;DHT22;15806;53.548;9.964;2023-05-07T10:12:31;11.20;1.00
28614;DHT22;15806;53.548;9.964;2023-05-07T10:14:12;11.20;1.00
28614;DHT22;15806;53.548;9.964;2023-05-07T10:15:55;11.10;1.00
28614;DHT22;15806;53.548;9.964;2023-05-07T10:17:38;11.20;1.00
28614;DHT22;15806;53.548;9.964;2023-05-07T10:19:20;11.30;99.90
28614;DHT22;15806;53.548;9.964;2023-05-07T10:21:20;11.20;99.90
28614;DHT22;15806;53.548;9.964;2023-05-07T10:23:04;11.20;99.90
28614;DHT22;15806;53.548;9.964;2023-05-07T10:24:48;11.20;99.90
28614;DHT22;15806;53.548;9.964;2023-05-07T10:26:32;11.30;99.90
28614;DHT22;15806;53.548;9.964;2023-05-07T10:28:14;11.30;1.00
28614;DHT22;15806;53.548;9.964;2023-05-07T10:33:59;11.20;99.90
28614;DHT22;15806;53.548;9.964;2023-05-07T10:35:44;11.20;36.00
28614;DHT22;15806;53.548;9.964;2023-05-07T10:37:25;11.20;99.90
28614;DHT22;15806;53.548;9.964;2023-05-07T10:39:06;11.10;1.00
28614;DHT22;15806;53.548;9.964;2023-05-07T10:40:47;11.00;1.00
28614;DHT22;15806;53.548;9.964;2023-05-07T10:42:27;11.10;1.00
28614;DHT22;15806;53.548;9.964;2023-05-07T10:44:08;11.10;10.10
28614;DHT22;15806;53.548;9.964;2023-05-07T10:46:20;11.30;99.90
28614;DHT22;15806;53.548;9.964;2023-05-07T10:48:14;11.40;1.00
28614;DHT22;15806;53.548;9.964;2023-05-07T10:51:35;11.30;8.00
28614;DHT22;15806;53.548;9.964;2023-05-07T10:57:36;11.20;1.00